Time;durP1;ratioP1;P1;durP2;ratioP2;P2;SDS_P1;SDS_P2;PMS_P1;PMS_P2;Temp;Humidity;BMP_temperature;BMP_pressure;BME280_temperature;BME280_humidity;BME280_pressure;Samples;Min_cycle;Max_cycle;Signal;HPM_P1;HPM_P2
2023/03/23 00:01:24;;;;;;;8.95;4.35;;;;;;;7.98;89.63;100951.34;4899274;29;20526;-85
2023/03/23 00:03:53;;;;;;;6.90;3.95;;;;;;;8.02;89.83;100962.59;4927276;29;20149;-90
2023/03/23 00:06:19;;;;;;;8.85;4.00;;;;;;;8.16;90.09;100988.16;4898090;29;20050;-86
2023/03/23 00:08:46;;;;;;;;;;;;;;;8.17;90.28;100988.03;4897931;29;20086;-85
2023/03/23 00:11:18;;;;;;;6.80;4.30;;;;;;;7.97;90.49;100956.81;4932341;29;19919;-86
2023/03/23 00:13:45;;;;;;;7.80;4.80;;;;;;;8.12;90.45;100979.53;4929034;29;20480;-89
2023/03/23 00:16:28;;;;;;;9.15;5.60;;;;;;;8.08;90.84;100967.44;4896734;29;20488;-87
2023/03/23 00:18:56;;;;;;;6.85;4.65;;;;;;;8.09;91.07;100965.59;4872541;29;20061;-85
2023/03/23 00:21:33;;;;;;;8.50;5.07;;;;;;;8.12;91.24;100976.84;4916052;29;20079;-86
2023/03/23 00:24:17;;;;;;;9.25;5.55;;;;;;;7.97;91.38;100956.81;4917775;29;20066;-86
2023/03/23 00:26:48;;;;;;;9.13;5.07;;;;;;;7.89;91.84;100948.63;4885754;29;20146;-86
2023/03/23 00:29:16;;;;;;;10.05;5.45;;;;;;;8.09;92.00;100976.31;4900094;29;20143;-85
2023/03/23 00:31:46;;;;;;;8.82;5.07;;;;;;;7.97;92.00;100962.19;4915343;29;20142;-86
2023/03/23 00:34:20;;;;;;;11.20;5.72;;;;;;;7.92;92.36;100953.72;4913287;29;20107;-86
2023/03/23 00:36:53;;;;;;;9.95;5.65;;;;;;;8.04;92.33;100955.28;4927690;29;20047;-87
2023/03/23 00:39:19;;;;;;;9.75;5.25;;;;;;;7.95;92.46;100937.38;4930126;29;20497;-85
2023/03/23 00:41:47;;;;;;;9.80;5.40;;;;;;;8.00;92.65;100961.91;4916033;29;20110;-86
2023/03/23 00:44:23;;;;;;;8.25;5.15;;;;;;;8.06;92.67;100957.84;4931330;29;20042;-86
2023/03/23 00:46:49;;;;;;;7.55;5.10;;;;;;;8.04;92.63;100955.28;4909268;29;20040;-88
2023/03/23 00:49:15;;;;;;;;;;;;;;;8.08;92.28;100967.44;4927957;29;20040;-85
2023/03/23 00:51:59;;;;;;;9.88;5.68;;;;;;;7.80;92.28;100927.03;4913865;29;19930;-87
2023/03/23 00:54:26;;;;;;;10.38;5.70;;;;;;;8.02;93.23;100976.00;4911590;29;20059;-87
2023/03/23 00:56:52;;;;;;;12.55;5.57;;;;;;;7.81;93.45;100944.78;4924610;29;20051;-86
2023/03/23 00:59:18;;;;;;;8.70;4.95;;;;;;;7.80;93.78;100945.78;4883285;29;20055;-87
2023/03/23 01:01:44;;;;;;;7.35;4.95;;;;;;;8.01;93.58;100961.78;4923763;29;20084;-87
2023/03/23 01:04:11;;;;;;;8.95;5.00;;;;;;;8.05;93.58;100965.00;4902109;29;20116;-85
2023/03/23 01:06:39;;;;;;;11.20;5.45;;;;;;;7.93;93.57;100950.03;4932822;29;20150;-87
2023/03/23 01:09:32;;;;;;;7.35;5.55;;;;;;;7.81;93.86;100914.50;4936683;29;20129;-87
2023/03/23 01:11:58;;;;;;;10.90;5.78;;;;;;;7.91;93.35;100935.94;4925847;29;20131;-87
2023/03/23 01:14:25;;;;;;;;;;;;;;;8.04;93.67;100955.28;4931000;29;20201;-84
2023/03/23 01:16:53;;;;;;;12.68;6.65;;;;;;;7.99;93.98;100955.69;4924005;29;20356;-86
2023/03/23 01:19:19;;;;;;;12.07;7.25;;;;;;;7.98;94.08;100947.78;4924669;29;20180;-86
2023/03/23 01:21:45;;;;;;;10.48;6.55;;;;;;;7.80;94.28;100919.00;4925143;29;20043;-90
2023/03/23 01:24:10;;;;;;;11.60;6.53;;;;;;;7.73;94.23;100911.69;4926494;29;20044;-86
2023/03/23 01:26:37;;;;;;;9.20;5.95;;;;;;;7.84;93.89;100927.59;4929006;29;20032;-86
2023/03/23 01:29:03;;;;;;;10.60;6.28;;;;;;;7.86;94.26;100943.53;4884193;29;20040;-89
2023/03/23 01:31:32;;;;;;;11.40;6.55;;;;;;;7.65;94.28;100911.50;4911330;29;20091;-86
2023/03/23 01:34:00;;;;;;;9.90;6.13;;;;;;;7.85;95.17;100945.38;4928360;29;20050;-85
2023/03/23 01:36:28;;;;;;;9.98;6.03;;;;;;;8.03;94.97;100967.84;4932257;29;20036;-85
2023/03/23 01:38:57;;;;;;;10.80;5.57;;;;;;;7.81;94.65;100914.50;4899664;29;20481;-85
2023/03/23 01:41:24;;;;;;;9.55;6.05;;;;;;;7.74;94.75;100924.91;4897203;29;20147;-86
2023/03/23 01:44:03;;;;;;;11.45;6.18;;;;;;;7.99;94.43;100950.34;4912174;29;20048;-87
2023/03/23 01:46:34;;;;;;;8.77;5.75;;;;;;;7.97;94.24;100954.97;4929383;29;20058;-86
2023/03/23 01:49:09;;;;;;;8.98;5.65;;;;;;;7.89;93.64;100930.75;4927898;29;20134;-86
2023/03/23 01:51:37;;;;;;;10.55;5.85;;;;;;;7.91;93.83;100925.22;4898148;29;20155;-86
2023/03/23 01:54:04;;;;;;;9.88;5.60;;;;;;;7.99;93.31;100933.44;4915890;29;20044;-86
2023/03/23 01:56:40;;;;;;;10.15;5.78;;;;;;;8.08;93.29;100945.13;4896981;29;20151;-85
2023/03/23 01:59:08;;;;;;;9.32;5.80;;;;;;;7.99;93.20;100931.59;4916353;29;20143;-86
2023/03/23 02:01:38;;;;;;;9.60;5.63;;;;;;;8.15;93.24;100954.34;4912120;29;20036;-88
2023/03/23 02:04:03;;;;;;;11.07;5.88;;;;;;;8.26;92.86;100962.22;4889008;29;20502;-87
2023/03/23 02:06:29;;;;;;;8.55;5.95;;;;;;;8.01;92.93;100926.13;4897270;29;20044;-86
2023/03/23 02:08:55;;;;;;;10.02;6.22;;;;;;;8.08;93.09;100932.63;4910596;29;20469;-84
2023/03/23 02:11:21;;;;;;;10.95;6.80;;;;;;;8.05;93.20;100943.59;4900436;29;20572;-85
2023/03/23 02:13:47;;;;;;;;;;;;;;;8.07;93.18;100951.50;4917217;29;20171;-87
2023/03/23 02:16:27;;;;;;;12.05;7.50;;;;;;;8.03;93.35;100967.00;4933380;29;19919;-87
2023/03/23 02:19:26;;;;;;;12.40;7.47;;;;;;;8.04;93.68;100968.69;4934217;29;20031;-87
2023/03/23 02:22:19;;;;;;;12.80;6.95;;;;;;;8.07;93.40;100968.41;4933060;29;20047;-86
2023/03/23 02:25:00;;;;;;;12.55;7.95;;;;;;;7.93;93.50;100944.69;4931696;29;20365;-86
2023/03/23 02:27:32;;;;;;;15.85;9.02;;;;;;;8.01;93.75;100951.06;4916171;29;20084;-85
2023/03/23 02:30:31;;;;;;;14.60;8.65;;;;;;;8.18;93.17;100965.59;4934458;29;20106;-84
2023/03/23 02:33:15;;;;;;;14.30;8.55;;;;;;;8.20;93.59;100969.00;4934714;29;20043;-87
2023/03/23 02:35:48;;;;;;;21.10;10.77;;;;;;;8.15;93.09;100947.16;4918278;29;20040;-85
2023/03/23 02:38:28;;;;;;;21.02;11.55;;;;;;;8.30;93.15;100968.16;4934602;29;20103;-86
2023/03/23 02:40:54;;;;;;;20.20;11.63;;;;;;;8.32;92.95;100966.22;4919784;29;20110;-84
2023/03/23 02:43:23;;;;;;;18.85;12.07;;;;;;;8.30;92.83;100968.16;4914805;29;20040;-85
2023/03/23 02:46:09;;;;;;;21.38;12.30;;;;;;;8.14;93.15;100953.47;4922828;29;20125;-87
2023/03/23 02:48:35;;;;;;;20.45;12.02;;;;;;;8.16;93.11;100959.53;4933794;29;20043;-84
2023/03/23 02:51:01;;;;;;;;;;;;;;;8.16;93.41;100972.94;4929295;29;20492;-82
2023/03/23 02:53:29;;;;;;;19.60;10.40;;;;;;;8.05;93.82;100970.34;4919562;29;19933;-84
2023/03/23 02:55:55;;;;;;;21.02;11.40;;;;;;;7.95;93.82;100964.13;4914996;29;20158;-84
2023/03/23 02:58:21;;;;;;;19.05;11.00;;;;;;;8.11;93.44;100983.22;4902272;29;20152;-83
2023/03/23 03:00:49;;;;;;;21.30;11.25;;;;;;;8.06;93.42;100961.34;4900664;29;20127;-83
2023/03/23 03:03:22;;;;;;;18.90;10.68;;;;;;;8.16;93.28;100967.56;4926207;29;20072;-82
2023/03/23 03:05:51;;;;;;;20.58;10.52;;;;;;;8.13;92.93;100967.03;4903831;29;20203;-83
2023/03/23 03:08:33;;;;;;;20.30;10.57;;;;;;;8.31;92.84;100994.84;4914123;29;20130;-83
2023/03/23 03:11:05;;;;;;;20.52;10.43;;;;;;;8.22;92.96;100987.63;4907530;29;20048;-84
2023/03/23 03:13:48;;;;;;;16.67;9.48;;;;;;;8.26;92.75;100980.97;4914238;29;20047;-84
2023/03/23 03:16:29;;;;;;;18.00;9.95;;;;;;;8.28;92.33;100986.22;4899048;29;20043;-83
2023/03/23 03:19:06;;;;;;;18.55;10.35;;;;;;;8.04;92.79;100968.69;4899172;29;20052;-84
2023/03/23 03:21:35;;;;;;;18.52;10.27;;;;;;;8.20;92.87;100989.59;4927924;29;20051;-83
2023/03/23 03:24:04;;;;;;;18.27;10.02;;;;;;;8.15;92.68;100984.63;4932333;29;20127;-83
2023/03/23 03:26:30;;;;;;;19.23;10.68;;;;;;;8.18;93.28;100992.38;4908772;29;20044;-84
2023/03/23 03:28:56;;;;;;;18.60;10.27;;;;;;;8.28;92.99;100986.22;4897163;29;20480;-84
2023/03/23 03:31:26;;;;;;;18.20;9.50;;;;;;;8.41;92.77;100992.19;4916773;29;20036;-84
2023/03/23 03:33:53;;;;;;;18.92;9.55;;;;;;;8.35;92.40;100982.84;4901259;29;20064;-86
2023/03/23 03:36:25;;;;;;;17.98;10.65;;;;;;;8.32;92.44;100979.59;4932184;29;20044;-85
2023/03/23 03:38:51;;;;;;;20.48;10.95;;;;;;;8.37;92.41;100983.53;4910916;29;20035;-83
2023/03/23 03:41:18;;;;;;;19.98;10.02;;;;;;;8.28;91.97;100976.34;4901993;29;20044;-85
2023/03/23 03:43:44;;;;;;;23.27;11.75;;;;;;;8.41;92.12;100994.88;4901111;29;20437;-85
2023/03/23 03:46:10;;;;;;;24.70;12.43;;;;;;;8.37;92.43;100996.09;4912144;29;20055;-83
2023/03/23 03:48:37;;;;;;;27.73;12.70;;;;;;;8.35;92.90;101003.44;4914666;29;20048;-84
2023/03/23 03:51:05;;;;;;;26.00;13.02;;;;;;;8.15;93.07;100981.97;4912682;29;20041;-85
2023/03/23 03:53:31;;;;;;;31.88;13.93;;;;;;;8.15;93.46;100979.28;4914243;29;20040;-86
2023/03/23 03:55:59;;;;;;;;;;;;;;;8.34;92.92;100996.38;4884929;29;20048;-85
2023/03/23 03:58:31;;;;;;;28.40;13.75;;;;;;;8.24;93.17;100996.34;4898326;29;19955;-86
2023/03/23 04:01:01;;;;;;;27.25;14.05;;;;;;;8.25;93.18;101009.59;4887487;29;20089;-85
2023/03/23 04:03:28;;;;;;;27.90;14.23;;;;;;;8.18;92.97;100996.91;4897565;29;20505;-85
2023/03/23 04:05:54;;;;;;;29.83;13.52;;;;;;;8.23;93.19;101003.53;4898683;29;20044;-85
2023/03/23 04:08:26;;;;;;;29.25;14.02;;;;;;;8.15;92.84;100976.59;4887554;29;20072;-84
2023/03/23 04:10:53;;;;;;;29.58;13.68;;;;;;;8.30;92.88;101003.00;4893504;29;20040;-85
2023/03/23 04:13:19;;;;;;;32.22;16.67;;;;;;;8.17;93.22;100989.84;4893176;29;20144;-83
2023/03/23 04:15:47;;;;;;;27.90;13.98;;;;;;;8.35;93.09;101019.50;4894144;29;20377;-85
2023/03/23 04:18:14;;;;;;;57.95;28.02;;;;;;;8.29;92.96;101009.31;4894315;29;20040;-86
2023/03/23 04:20:41;;;;;;;91.93;42.88;;;;;;;8.25;93.21;101003.41;4884980;29;20425;-84
2023/03/23 04:23:07;;;;;;;103.43;49.20;;;;;;;8.23;92.51;100995.50;4895774;29;20138;-85
2023/03/23 04:25:35;;;;;;;109.00;51.47;;;;;;;8.39;92.51;101012.88;4891972;29;20037;-83
2023/03/23 04:28:02;;;;;;;106.45;47.50;;;;;;;8.42;92.44;101009.94;4892497;29;20060;-85
2023/03/23 04:30:29;;;;;;;88.05;41.92;;;;;;;8.30;92.38;100995.81;4899438;29;20045;-83
2023/03/23 04:32:56;;;;;;;87.85;38.63;;;;;;;8.39;92.30;101016.41;4900010;29;20048;-84
2023/03/23 04:35:25;;;;;;;74.25;34.33;;;;;;;8.38;92.24;101020.09;4889567;29;20052;-84
2023/03/23 04:37:53;;;;;;;71.63;32.88;;;;;;;8.33;92.26;101010.75;4889378;29;20044;-84
2023/03/23 04:40:20;;;;;;;60.58;28.30;;;;;;;8.47;91.98;101028.28;4893242;29;20501;-85
2023/03/23 04:42:48;;;;;;;45.10;22.08;;;;;;;8.36;92.09;101016.69;4877953;29;20569;-84
2023/03/23 04:45:21;;;;;;;44.30;20.85;;;;;;;8.36;92.24;101027.41;4878718;29;20453;-85
2023/03/23 04:47:52;;;;;;;38.30;19.00;;;;;;;8.33;92.23;101026.81;4894999;29;20040;-86
2023/03/23 04:50:19;;;;;;;39.42;18.92;;;;;;;8.24;92.42;101021.31;4915073;29;20045;-86
2023/03/23 04:52:48;;;;;;;35.13;17.08;;;;;;;8.22;92.93;101025.13;4872342;29;20481;-85
2023/03/23 04:55:13;;;;;;;27.70;15.43;;;;;;;8.36;92.75;101026.56;4913453;29;20059;-87
2023/03/23 04:57:40;;;;;;;29.20;15.18;;;;;;;8.20;92.91;101033.28;4912295;29;20040;-86
2023/03/23 05:00:08;;;;;;;;;;;;;;;8.19;93.21;101028.06;4896506;29;20044;-85
2023/03/23 05:02:36;;;;;;;26.10;13.98;;;;;;;8.16;93.46;101031.84;4909842;29;19919;-86
2023/03/23 05:05:02;;;;;;;28.42;15.13;;;;;;;8.11;93.22;101023.38;4914869;29;20091;-83
2023/03/23 05:07:28;;;;;;;27.10;14.98;;;;;;;8.25;93.15;101028.34;4917265;29;20131;-83
2023/03/23 05:09:54;;;;;;;26.50;14.07;;;;;;;8.32;93.40;101047.41;4911137;29;20067;-85
2023/03/23 05:12:19;;;;;;;28.80;16.33;;;;;;;8.34;93.00;101025.84;4908839;29;20040;-84
2023/03/23 05:14:47;;;;;;;27.00;14.85;;;;;;;8.48;92.91;101052.28;4912162;29;20100;-87
2023/03/23 05:17:16;;;;;;;27.23;14.27;;;;;;;8.51;92.63;101045.81;4922496;29;20036;-84
2023/03/23 05:19:47;;;;;;;28.30;14.73;;;;;;;8.53;91.91;101033.97;4914660;29;20127;-87
2023/03/23 05:22:16;;;;;;;25.27;14.25;;;;;;;8.57;91.80;101035.38;4907266;29;20048;-87
2023/03/23 05:24:42;;;;;;;24.90;13.93;;;;;;;8.62;91.46;101033.13;4928676;29;20055;-85
2023/03/23 05:27:10;;;;;;;26.00;13.80;;;;;;;8.72;91.37;101037.66;4912884;29;20339;-87
2023/03/23 05:29:40;;;;;;;25.75;14.35;;;;;;;8.86;90.57;101050.63;4911862;29;20048;-85
2023/03/23 05:32:07;;;;;;;21.48;12.27;;;;;;;8.93;89.52;101051.78;4922717;29;20047;-86
2023/03/23 05:34:36;;;;;;;23.30;13.00;;;;;;;9.12;89.35;101063.50;4897823;29;20385;-87
2023/03/23 05:37:02;;;;;;;21.33;11.35;;;;;;;9.15;88.68;101066.72;4909620;29;20115;-87
2023/03/23 05:39:29;;;;;;;15.38;9.98;;;;;;;9.15;88.79;101060.50;4915698;29;20572;-88
2023/03/23 05:41:56;;;;;;;13.60;7.90;;;;;;;9.27;87.81;101070.97;4906156;29;20032;-89
2023/03/23 05:44:22;;;;;;;12.77;7.75;;;;;;;9.27;87.04;101065.59;4919123;29;20055;-87
2023/03/23 05:46:47;;;;;;;9.75;6.53;;;;;;;9.35;85.91;101067.56;4893315;29;20052;-86
2023/03/23 05:49:18;;;;;;;9.63;5.63;;;;;;;9.49;85.40;101077.84;4902522;29;20429;-87
2023/03/23 05:51:45;;;;;;;10.38;5.75;;;;;;;9.55;84.70;101076.41;4916005;29;20036;-88
2023/03/23 05:54:11;;;;;;;7.93;5.75;;;;;;;9.67;83.70;101082.50;4889852;29;20082;-86
2023/03/23 05:56:37;;;;;;;10.05;5.88;;;;;;;9.52;83.62;101071.34;4916810;29;20031;-88
2023/03/23 05:59:04;;;;;;;10.00;5.95;;;;;;;9.38;83.40;101058.38;4942393;29;20503;-88
2023/03/23 06:01:31;;;;;;;9.10;6.03;;;;;;;9.52;83.19;101080.25;4922199;29;20484;-86
2023/03/23 06:03:58;;;;;;;8.85;5.88;;;;;;;9.34;83.02;101065.88;4934002;29;20118;-88
2023/03/23 06:06:25;;;;;;;9.27;6.35;;;;;;;9.42;83.13;101068.69;4902327;29;20059;-87
2023/03/23 06:08:51;;;;;;;9.38;6.72;;;;;;;9.46;82.90;101080.84;4918152;29;20497;-88
2023/03/23 06:11:18;;;;;;;19.40;12.88;;;;;;;9.46;83.41;101078.16;4906480;29;20040;-88
2023/03/23 06:13:44;;;;;;;10.50;7.22;;;;;;;9.52;82.62;101087.44;4919449;29;20471;-87
2023/03/23 06:16:11;;;;;;;13.45;8.13;;;;;;;9.50;82.79;101082.25;4917339;29;20048;-88
2023/03/23 06:18:37;;;;;;;23.02;13.48;;;;;;;9.48;83.96;101078.00;4921707;29;20051;-85
2023/03/23 06:21:03;;;;;;;23.27;15.23;;;;;;;9.60;84.77;101082.22;4925544;29;20394;-88
2023/03/23 06:23:30;;;;;;;25.67;15.63;;;;;;;9.58;85.56;101078.00;4919501;29;20433;-87
2023/03/23 06:25:56;;;;;;;;;;;;;;;9.72;86.26;101105.22;4910564;29;20044;-86
2023/03/23 06:28:22;;;;;;;26.70;15.63;;;;;;;9.57;86.59;101087.88;4917283;29;19973;-87
2023/03/23 06:30:48;;;;;;;28.02;15.00;;;;;;;9.57;86.48;101105.81;4940059;29;20047;-86
2023/03/23 06:33:27;;;;;;;22.83;13.82;;;;;;;9.54;86.07;101098.06;4935985;29;20155;-85
2023/03/23 06:35:56;;;;;;;23.40;14.48;;;;;;;9.46;85.85;101080.00;4906527;29;20485;-87
2023/03/23 06:38:23;;;;;;;22.77;13.93;;;;;;;9.43;85.85;101086.47;4934014;29;20043;-87
2023/03/23 06:40:50;;;;;;;22.27;13.48;;;;;;;9.61;85.62;101099.19;4936957;29;20103;-87
2023/03/23 06:43:16;;;;;;;21.83;12.98;;;;;;;9.53;85.73;101102.59;4933115;29;20036;-86
2023/03/23 06:45:41;;;;;;;18.35;11.90;;;;;;;9.46;86.23;101105.00;4934806;29;20050;-87
2023/03/23 06:48:08;;;;;;;18.15;11.38;;;;;;;9.55;85.84;101092.53;4937555;29;20051;-87
2023/03/23 06:50:33;;;;;;;;;;;;;;;9.66;86.00;101124.59;4935557;29;20694;-88
2023/03/23 06:53:00;;;;;;;22.00;14.07;;;;;;;9.44;86.65;101104.28;4917475;29;19928;-87
2023/03/23 06:55:26;;;;;;;20.60;12.95;;;;;;;9.34;86.86;101092.72;4888750;29;20622;-90
2023/03/23 06:57:52;;;;;;;19.52;12.93;;;;;;;9.65;86.27;101116.69;4931457;29;20191;-87
2023/03/23 07:00:19;;;;;;;;;;;;;;;9.81;86.24;101130.38;4929049;29;20055;-86
2023/03/23 07:02:45;;;;;;;19.05;10.93;;;;;;;9.51;85.70;101093.81;4933667;29;20328;-87
2023/03/23 07:05:12;;;;;;;16.48;10.27;;;;;;;9.66;85.46;101107.63;4935558;29;20048;-87
2023/03/23 07:07:39;;;;;;;15.32;9.70;;;;;;;9.82;84.63;101129.38;4916657;29;20130;-86
2023/03/23 07:10:06;;;;;;;15.07;10.05;;;;;;;9.88;84.69;101122.56;4914906;29;20055;-86
2023/03/23 07:12:33;;;;;;;14.57;9.73;;;;;;;10.09;84.29;101125.03;4915968;29;20071;-87
2023/03/23 07:14:58;;;;;;;20.92;11.95;;;;;;;10.05;83.70;101124.50;4948784;29;20036;-85
2023/03/23 07:17:28;;;;;;;14.43;8.70;;;;;;;9.92;82.14;101095.25;4935764;29;20078;-87
2023/03/23 07:19:56;;;;;;;13.18;8.73;;;;;;;10.03;82.20;101104.16;4935471;29;20078;-86
2023/03/23 07:22:21;;;;;;;13.65;9.10;;;;;;;10.48;81.60;101133.00;4930986;29;20074;-85
2023/03/23 07:24:47;;;;;;;10.93;7.15;;;;;;;10.39;80.88;101150.00;4878482;29;20067;-85
2023/03/23 07:27:16;;;;;;;12.68;7.07;;;;;;;10.62;80.02;101137.03;4916144;29;20051;-88
2023/03/23 07:29:41;;;;;;;10.32;6.70;;;;;;;10.57;78.63;101116.81;4935757;29;20032;-87
2023/03/23 07:32:10;;;;;;;8.90;6.05;;;;;;;10.75;77.77;101121.41;4929890;29;20135;-87
2023/03/23 07:34:39;;;;;;;8.75;5.95;;;;;;;10.67;76.81;101113.22;4901666;29;20046;-89
2023/03/23 07:37:05;;;;;;;8.25;5.75;;;;;;;10.85;76.27;101121.34;4914061;29;20135;-89
2023/03/23 07:39:33;;;;;;;9.73;6.25;;;;;;;10.97;76.18;101117.44;4911158;29;20123;-86
2023/03/23 07:42:01;;;;;;;11.02;6.00;;;;;;;11.30;75.04;101109.66;4921982;29;20064;-88
2023/03/23 07:44:28;;;;;;;12.50;7.35;;;;;;;11.50;75.04;101116.56;4937724;29;20126;-88
2023/03/23 07:46:57;;;;;;;13.45;8.35;;;;;;;11.58;74.70;101103.16;4898853;29;20074;-86
2023/03/23 07:49:22;;;;;;;14.75;7.82;;;;;;;11.84;74.93;101118.50;4912176;29;20457;-86
2023/03/23 07:51:49;;;;;;;24.92;16.45;;;;;;;11.82;75.10;101128.59;4913084;29;20071;-84
2023/03/23 07:54:16;;;;;;;24.48;15.75;;;;;;;11.98;75.76;101127.88;4914128;29;20126;-87
2023/03/23 07:56:51;;;;;;;18.88;12.60;;;;;;;12.43;75.29;101132.16;4929968;29;20040;-83
2023/03/23 07:59:22;;;;;;;18.33;11.77;;;;;;;12.60;74.85;101131.25;4919631;29;20043;-81
2023/03/23 08:01:47;;;;;;;14.15;9.18;;;;;;;12.78;73.53;101128.44;4916010;29;20154;-84
2023/03/23 08:04:15;;;;;;;12.02;8.52;;;;;;;12.99;71.59;101146.03;4935942;29;20062;-86
2023/03/23 08:06:42;;;;;;;12.88;8.55;;;;;;;12.84;70.08;101119.69;4935201;29;20054;-86
2023/03/23 08:09:08;;;;;;;13.30;8.93;;;;;;;12.77;70.23;101113.25;4923612;29;20500;-86
2023/03/23 08:11:39;;;;;;;13.48;9.75;;;;;;;13.13;71.99;101125.66;4913828;29;20122;-87
2023/03/23 08:14:07;;;;;;;15.32;10.73;;;;;;;13.47;71.92;101145.28;4914248;29;20099;-87
2023/03/23 08:16:33;;;;;;;16.00;10.23;;;;;;;13.42;70.20;101127.91;4891429;29;20038;-87
2023/03/23 08:18:59;;;;;;;16.65;11.05;;;;;;;13.48;69.52;101122.66;4932901;29;20063;-86
2023/03/23 08:21:28;;;;;;;;;;;;;;;13.58;64.59;101157.63;4932979;29;20476;-83
2023/03/23 08:23:57;;;;;;;9.80;7.07;;;;;;;13.27;65.89;101125.00;4917935;29;19919;-94
2023/03/23 08:26:26;;;;;;;10.63;6.32;;;;;;;12.87;65.75;101126.59;4934213;29;20047;-89
2023/03/23 08:28:51;;;;;;;9.20;6.70;;;;;;;12.71;66.24;101146.28;4919444;29;20039;-86
2023/03/23 08:31:17;;;;;;;11.60;7.20;;;;;;;12.88;66.69;101147.19;4891494;29;20066;-86
2023/03/23 08:33:43;;;;;;;9.18;6.57;;;;;;;12.63;67.08;101148.97;4919119;29;20050;-85
2023/03/23 08:36:09;;;;;;;12.25;8.30;;;;;;;12.39;68.03;101139.75;4938168;29;20125;-87
2023/03/23 08:38:35;;;;;;;13.10;8.52;;;;;;;12.33;69.88;101151.16;4940250;29;20138;-85
2023/03/23 08:41:08;;;;;;;11.30;7.80;;;;;;;12.09;69.95;101129.47;4928161;29;20121;-85
2023/03/23 08:43:37;;;;;;;11.70;7.18;;;;;;;12.12;69.15;101153.41;4916291;29;20039;-87
2023/03/23 08:46:08;;;;;;;9.40;6.20;;;;;;;12.08;67.68;101160.13;4919680;29;20126;-85
2023/03/23 08:48:40;;;;;;;12.32;7.40;;;;;;;12.08;67.58;101166.38;4936150;29;20043;-87
2023/03/23 08:51:06;;;;;;;12.23;8.07;;;;;;;11.94;68.74;101132.75;4928574;29;20072;-86
2023/03/23 08:53:33;;;;;;;12.27;8.50;;;;;;;12.33;69.28;101161.13;4942887;29;20036;-90
2023/03/23 08:56:05;;;;;;;11.57;7.03;;;;;;;12.23;68.08;101135.13;4932230;29;20210;-88
2023/03/23 08:58:32;;;;;;;11.35;7.70;;;;;;;12.61;67.85;101159.06;4915503;29;20125;-85
2023/03/23 09:00:58;;;;;;;10.45;7.38;;;;;;;12.50;67.70;101145.84;4923862;29;20040;-86
2023/03/23 09:03:27;;;;;;;13.70;9.80;;;;;;;12.70;69.65;101159.94;4935481;29;20031;-91
2023/03/23 09:06:01;;;;;;;19.65;10.63;;;;;;;12.60;69.68;101149.28;4924804;29;20043;-86
2023/03/23 09:08:31;;;;;;;15.43;10.27;;;;;;;12.66;69.74;101151.31;4902949;29;20051;-86
2023/03/23 09:11:03;;;;;;;13.23;7.10;;;;;;;12.72;66.18;101129.09;4933979;29;20098;-91
2023/03/23 09:13:29;;;;;;;10.55;7.28;;;;;;;12.94;66.40;101153.78;4930384;29;20647;-87
2023/03/23 09:15:55;;;;;;;11.68;6.97;;;;;;;12.88;64.62;101150.75;4933216;29;20516;-88
2023/03/23 09:18:28;;;;;;;11.45;6.85;;;;;;;12.97;64.43;101142.66;4932213;29;20047;-86
2023/03/23 09:20:54;;;;;;;12.77;6.25;;;;;;;13.19;64.41;101131.22;4921934;29;20077;-90
2023/03/23 09:23:20;;;;;;;11.07;6.35;;;;;;;13.18;63.22;101128.69;4919288;29;20055;-88
2023/03/23 09:25:46;;;;;;;11.40;6.93;;;;;;;13.55;62.00;101136.34;4890316;29;20047;-86
2023/03/23 09:28:12;;;;;;;13.18;9.00;;;;;;;13.41;65.50;101135.16;4939137;29;20048;-85
2023/03/23 09:30:40;;;;;;;14.57;8.70;;;;;;;13.59;65.79;101143.09;4900268;29;20039;-89
2023/03/23 09:33:08;;;;;;;14.30;9.10;;;;;;;12.95;66.77;101142.00;4918589;29;20149;-87
2023/03/23 09:35:38;;;;;;;12.05;8.55;;;;;;;12.84;67.37;101133.19;4917610;29;20516;-84
2023/03/23 09:38:05;;;;;;;13.60;9.00;;;;;;;12.59;67.80;101150.28;4910875;29;20039;-82
2023/03/23 09:40:48;;;;;;;14.75;8.90;;;;;;;12.27;69.37;101130.25;4915742;29;20040;-86
2023/03/23 09:43:56;;;;;;;16.38;9.68;;;;;;;12.17;69.62;101160.00;4933158;29;20051;-89
2023/03/23 09:46:53;;;;;;;12.65;9.18;;;;;;;12.14;70.03;101162.19;4938931;29;20054;-86
2023/03/23 09:49:32;;;;;;;13.88;9.05;;;;;;;12.23;71.35;101150.44;4912130;29;20051;-84
2023/03/23 09:52:11;;;;;;;13.00;8.88;;;;;;;11.98;70.80;101138.66;4923961;29;20473;-86
2023/03/23 09:54:42;;;;;;;13.30;9.45;;;;;;;11.99;71.30;101145.75;4922027;29;20066;-85
2023/03/23 09:57:31;;;;;;;13.48;9.20;;;;;;;12.30;70.11;101151.50;4914964;29;20044;-86
2023/03/23 10:00:05;;;;;;;12.48;8.32;;;;;;;12.17;69.41;101143.00;4903007;29;20050;-85
2023/03/23 10:02:39;;;;;;;15.57;9.00;;;;;;;12.41;68.79;101161.19;4920056;29;20064;-89
2023/03/23 10:05:23;;;;;;;13.45;8.55;;;;;;;12.71;66.66;101130.09;4930293;29;20431;-84
2023/03/23 10:07:50;;;;;;;12.40;8.52;;;;;;;12.81;67.09;101138.06;4912847;29;20530;-83
2023/03/23 10:10:18;;;;;;;11.43;8.32;;;;;;;13.22;64.45;101136.28;4919581;29;20077;-85
2023/03/23 10:13:16;;;;;;;13.38;8.52;;;;;;;13.54;64.24;101145.47;4932376;29;20095;-83
2023/03/23 10:15:42;;;;;;;15.55;9.38;;;;;;;13.79;63.67;101115.72;4934878;29;20111;-81
2023/03/23 10:18:46;;;;;;;15.18;9.00;;;;;;;15.21;59.24;101131.06;4924298;29;20510;-82
2023/03/23 10:21:16;;;;;;;12.48;8.32;;;;;;;16.14;55.80;101105.53;4925273;29;20131;-87
2023/03/23 10:23:48;;;;;;;13.35;8.80;;;;;;;16.82;53.55;101111.69;4933614;29;20047;-88
2023/03/23 10:26:29;;;;;;;13.90;8.18;;;;;;;16.78;53.91;101128.50;4923910;29;20040;-86
2023/03/23 10:29:00;;;;;;;12.48;8.45;;;;;;;16.41;53.97;101125.75;4911150;29;20041;-84
2023/03/23 10:31:37;;;;;;;14.63;8.07;;;;;;;15.77;54.73;101139.81;4900630;29;20039;-85
2023/03/23 10:34:08;;;;;;;13.52;9.00;;;;;;;15.12;57.04;101124.03;4907887;29;20027;-90
2023/03/23 10:36:59;;;;;;;19.00;8.52;;;;;;;14.53;58.74;101136.16;4900898;29;20062;-87
2023/03/23 10:39:31;;;;;;;11.75;8.15;;;;;;;14.28;59.17;101137.25;4921220;29;20085;-88
2023/03/23 10:42:02;;;;;;;11.65;8.52;;;;;;;14.18;60.13;101099.59;4914479;29;20134;-86
2023/03/23 10:44:31;;;;;;;13.73;8.48;;;;;;;14.43;59.63;101108.47;4914205;29;20043;-90
2023/03/23 10:47:11;;;;;;;14.45;9.23;;;;;;;14.32;58.86;101101.56;4900578;29;20035;-88
2023/03/23 10:49:56;;;;;;;13.73;8.13;;;;;;;14.33;59.46;101115.97;4937679;29;20062;-89
2023/03/23 10:52:30;;;;;;;14.45;8.75;;;;;;;14.28;58.92;101093.97;4918398;29;20067;-89
2023/03/23 10:55:20;;;;;;;15.77;8.50;;;;;;;14.65;59.05;101116.84;4921492;29;20127;-86
2023/03/23 10:58:04;;;;;;;12.70;7.97;;;;;;;14.60;58.54;101124.66;4934159;29;20059;-88
2023/03/23 11:00:31;;;;;;;18.70;8.40;;;;;;;14.33;59.22;101103.28;4938449;28;20058;-86
2023/03/23 11:03:02;;;;;;;14.95;8.35;;;;;;;14.34;59.90;101115.75;4915510;29;20056;-86
2023/03/23 11:08:34;;;;;;;12.90;7.60;;;;;;;14.04;59.46;101111.97;4911189;29;20056;-84
2023/03/23 11:11:16;;;;;;;15.85;8.45;;;;;;;14.01;60.85;101114.19;4918330;29;20043;-84
2023/03/23 11:13:46;;;;;;;18.33;8.45;;;;;;;14.03;60.28;101090.53;4917102;29;20071;-85
2023/03/23 11:16:27;;;;;;;17.42;9.02;;;;;;;14.06;60.49;101112.63;4922838;29;20042;-83
2023/03/23 11:18:54;;;;;;;13.95;7.88;;;;;;;13.47;61.21;101076.94;4907699;29;20108;-85
2023/03/23 11:21:22;;;;;;;12.35;8.07;;;;;;;13.48;61.38;101087.53;4926525;29;20052;-85
2023/03/23 11:24:16;;;;;;;15.68;7.35;;;;;;;13.44;60.92;101104.28;4917245;29;20036;-83
2023/03/23 11:26:43;;;;;;;12.43;7.50;;;;;;;13.26;62.53;101104.41;4921375;29;20442;-83
2023/03/23 11:29:42;;;;;;;13.18;8.18;;;;;;;13.04;63.75;101090.56;4920876;29;20342;-83
2023/03/23 11:32:12;;;;;;;27.10;9.00;;;;;;;13.06;64.16;101090.38;4914692;29;20044;-83
2023/03/23 11:34:47;;;;;;;14.35;8.73;;;;;;;12.94;64.78;101072.81;4916656;29;20044;-83
2023/03/23 11:37:42;;;;;;;20.85;9.05;;;;;;;13.30;64.45;101103.09;4899594;29;20103;-84
2023/03/23 11:40:11;;;;;;;16.00;8.90;;;;;;;13.05;64.81;101102.19;4922463;29;20052;-84
2023/03/23 11:42:49;;;;;;;17.08;9.18;;;;;;;12.96;65.25;101098.63;4915773;29;20068;-84